WZZ911 LFMN-EPWA
Flight info
| Callsign | WZZ911 |
|---|---|
| Flight time | 2h 7m |
| Altitude | 38000 |
| Route | BASIP DCT ANAKI DCT MALUG/N0436F370 DCT NETIR DCT KOTEK M866 LOGDA |
| Aircraft | A321/M-SDE1E2E3FGIJ1J4RWXY/LB1 |
Departure
| Time | 2026-05-06 10:05 |
|---|---|
| Airport | Nice-Côte d'Azur Airport (LFMN) |
Arrival
| Time | 2026-05-06 12:13 |
|---|---|
| Airport | Warsaw Chopin Airport (EPWA) |
| Time | Latitude | Longitude | Altitude | Speed | Heading |
|---|---|---|---|---|---|
| 2026-05-06 09:26 | 43.66120 | 7.20693 | 21 ft | 0 kts | 261° |
| 2026-05-06 09:56 | 43.66121 | 7.20697 | 21 ft | 3 kts | 261° |
| 2026-05-06 09:56 | 43.66125 | 7.20733 | 23 ft | 3 kts | 261° |
| 2026-05-06 09:56 | 43.66129 | 7.20762 | 25 ft | 4 kts | 242° |
| 2026-05-06 09:57 | 43.66145 | 7.20783 | 23 ft | 4 kts | 184° |
| 2026-05-06 09:57 | 43.66169 | 7.20781 | 21 ft | 3 kts | 171° |
| 2026-05-06 09:57 | 43.66172 | 7.20780 | 21 ft | 0 kts | 171° |
| 2026-05-06 09:59 | 43.66162 | 7.20782 | 21 ft | 3 kts | 171° |
| 2026-05-06 10:00 | 43.66130 | 7.20789 | 21 ft | 7 kts | 171° |
| 2026-05-06 10:00 | 43.66059 | 7.20804 | 21 ft | 12 kts | 171° |
| 2026-05-06 10:00 | 43.65964 | 7.20826 | 21 ft | 16 kts | 170° |
| 2026-05-06 10:00 | 43.65848 | 7.20852 | 21 ft | 16 kts | 171° |
| 2026-05-06 10:01 | 43.65802 | 7.20934 | 21 ft | 13 kts | 68° |
| 2026-05-06 10:01 | 43.65866 | 7.21026 | 21 ft | 14 kts | 45° |
| 2026-05-06 10:01 | 43.65940 | 7.21128 | 21 ft | 16 kts | 45° |
| 2026-05-06 10:01 | 43.66023 | 7.21241 | 21 ft | 18 kts | 45° |
| 2026-05-06 10:02 | 43.66113 | 7.21366 | 21 ft | 19 kts | 45° |
| 2026-05-06 10:02 | 43.66211 | 7.21501 | 21 ft | 21 kts | 45° |
| 2026-05-06 10:02 | 43.66314 | 7.21645 | 21 ft | 22 kts | 44° |
| 2026-05-06 10:02 | 43.66426 | 7.21796 | 21 ft | 23 kts | 46° |
| 2026-05-06 10:03 | 43.66533 | 7.21942 | 21 ft | 12 kts | 44° |
| 2026-05-06 10:03 | 43.66561 | 7.21994 | 21 ft | 7 kts | 80° |
| 2026-05-06 10:03 | 43.66533 | 7.22054 | 21 ft | 9 kts | 135° |
| 2026-05-06 10:03 | 43.66485 | 7.22118 | 21 ft | 11 kts | 135° |
| 2026-05-06 10:04 | 43.66425 | 7.22188 | 22 ft | 12 kts | 153° |
| 2026-05-06 10:04 | 43.66333 | 7.22188 | 22 ft | 15 kts | 196° |
| 2026-05-06 10:04 | 43.66230 | 7.22148 | 22 ft | 16 kts | 194° |
| 2026-05-06 10:04 | 43.66116 | 7.22107 | 23 ft | 18 kts | 195° |
| 2026-05-06 10:05 | 43.65988 | 7.22037 | 24 ft | 27 kts | 208° |
| 2026-05-06 10:05 | 43.65687 | 7.21645 | 23 ft | 98 kts | 225° |
| 2026-05-06 10:05 | 43.65041 | 7.20782 | 126 ft | 148 kts | 223° |
| 2026-05-06 10:05 | 43.64336 | 7.19834 | 926 ft | 142 kts | 224° |
| 2026-05-06 10:06 | 43.63610 | 7.18841 | 1366 ft | 157 kts | 226° |
| 2026-05-06 10:06 | 43.62777 | 7.17686 | 1722 ft | 178 kts | 225° |
| 2026-05-06 10:06 | 43.61847 | 7.16397 | 2016 ft | 201 kts | 225° |
| 2026-05-06 10:06 | 43.60586 | 7.15354 | 2275 ft | 230 kts | 192° |
| 2026-05-06 10:07 | 43.58916 | 7.15636 | 2762 ft | 258 kts | 163° |
| 2026-05-06 10:07 | 43.57263 | 7.16722 | 3545 ft | 268 kts | 153° |
| 2026-05-06 10:07 | 43.55788 | 7.18351 | 4358 ft | 281 kts | 128° |
| 2026-05-06 10:07 | 43.55027 | 7.20820 | 5183 ft | 289 kts | 103° |
| 2026-05-06 10:08 | 43.54588 | 7.23538 | 6086 ft | 292 kts | 104° |
| 2026-05-06 10:08 | 43.54087 | 7.26265 | 6917 ft | 295 kts | 106° |
| 2026-05-06 10:08 | 43.53736 | 7.29071 | 7738 ft | 300 kts | 93° |
| 2026-05-06 10:08 | 43.53905 | 7.31954 | 8570 ft | 305 kts | 77° |
| 2026-05-06 10:09 | 43.54569 | 7.34752 | 9408 ft | 310 kts | 70° |
| 2026-05-06 10:09 | 43.55320 | 7.37555 | 10198 ft | 314 kts | 70° |
| 2026-05-06 10:09 | 43.56092 | 7.40424 | 10728 ft | 329 kts | 69° |
| 2026-05-06 10:09 | 43.57190 | 7.43311 | 10968 ft | 352 kts | 54° |
| 2026-05-06 10:10 | 43.58729 | 7.46005 | 11481 ft | 363 kts | 50° |
| 2026-05-06 10:10 | 43.60329 | 7.48734 | 12229 ft | 367 kts | 50° |
| 2026-05-06 10:10 | 43.61936 | 7.51494 | 12982 ft | 372 kts | 51° |
| 2026-05-06 10:10 | 43.63564 | 7.54301 | 13704 ft | 377 kts | 51° |
| 2026-05-06 10:11 | 43.65211 | 7.57144 | 14332 ft | 382 kts | 51° |
| 2026-05-06 10:11 | 43.66881 | 7.60028 | 14928 ft | 388 kts | 51° |
| 2026-05-06 10:11 | 43.68581 | 7.62964 | 15488 ft | 395 kts | 51° |
| 2026-05-06 10:11 | 43.70308 | 7.65955 | 16091 ft | 401 kts | 51° |
| 2026-05-06 10:12 | 43.72057 | 7.68992 | 16692 ft | 407 kts | 51° |
| 2026-05-06 10:12 | 43.73839 | 7.72076 | 17293 ft | 413 kts | 50° |
| 2026-05-06 10:12 | 43.75697 | 7.75138 | 17889 ft | 419 kts | 48° |
| 2026-05-06 10:12 | 43.77638 | 7.78187 | 18450 ft | 424 kts | 47° |
| 2026-05-06 10:13 | 43.79625 | 7.81230 | 18996 ft | 429 kts | 47° |
| 2026-05-06 10:13 | 43.81641 | 7.84304 | 19531 ft | 433 kts | 47° |
| 2026-05-06 10:13 | 43.83670 | 7.87418 | 20078 ft | 438 kts | 47° |
| 2026-05-06 10:13 | 43.85709 | 7.90585 | 20628 ft | 443 kts | 48° |
| 2026-05-06 10:14 | 43.87756 | 7.93801 | 21170 ft | 447 kts | 49° |
| 2026-05-06 10:14 | 43.89651 | 7.97243 | 21651 ft | 452 kts | 59° |
| 2026-05-06 10:14 | 43.91215 | 8.01028 | 22243 ft | 454 kts | 63° |
| 2026-05-06 10:14 | 43.92761 | 8.04868 | 22839 ft | 457 kts | 63° |
| 2026-05-06 10:15 | 43.94329 | 8.08721 | 23394 ft | 461 kts | 62° |
| 2026-05-06 10:15 | 43.95920 | 8.12603 | 23836 ft | 465 kts | 62° |
| 2026-05-06 10:15 | 43.97527 | 8.16523 | 24276 ft | 469 kts | 63° |
| 2026-05-06 10:15 | 43.99140 | 8.20470 | 24689 ft | 472 kts | 63° |
| 2026-05-06 10:16 | 44.00763 | 8.24458 | 25111 ft | 476 kts | 63° |
| 2026-05-06 10:16 | 44.02395 | 8.28477 | 25524 ft | 479 kts | 63° |
| 2026-05-06 10:16 | 44.04034 | 8.32525 | 25946 ft | 482 kts | 63° |
| 2026-05-06 10:16 | 44.05681 | 8.36602 | 26321 ft | 486 kts | 63° |
| 2026-05-06 10:17 | 44.07317 | 8.40656 | 26728 ft | 489 kts | 63° |
| 2026-05-06 10:17 | 44.09006 | 8.44845 | 27120 ft | 492 kts | 64° |
| 2026-05-06 10:17 | 44.10659 | 8.48956 | 27536 ft | 495 kts | 64° |
| 2026-05-06 10:17 | 44.12348 | 8.53160 | 27899 ft | 500 kts | 64° |
| 2026-05-06 10:18 | 44.14048 | 8.57399 | 28252 ft | 503 kts | 64° |
| 2026-05-06 10:18 | 44.15758 | 8.61665 | 28623 ft | 507 kts | 64° |
| 2026-05-06 10:18 | 44.17481 | 8.65971 | 29007 ft | 510 kts | 64° |
| 2026-05-06 10:18 | 44.19251 | 8.70274 | 29356 ft | 515 kts | 60° |
| 2026-05-06 10:19 | 44.21383 | 8.74309 | 29673 ft | 520 kts | 50° |
| 2026-05-06 10:19 | 44.23871 | 8.77995 | 30012 ft | 524 kts | 46° |
| 2026-05-06 10:19 | 44.26414 | 8.81646 | 30333 ft | 526 kts | 46° |
| 2026-05-06 10:19 | 44.28963 | 8.85320 | 30676 ft | 528 kts | 47° |
| 2026-05-06 10:20 | 44.31524 | 8.89029 | 30995 ft | 531 kts | 47° |
| 2026-05-06 10:20 | 44.34086 | 8.92750 | 31327 ft | 533 kts | 47° |
| 2026-05-06 10:20 | 44.36657 | 8.96493 | 31749 ft | 533 kts | 47° |
| 2026-05-06 10:20 | 44.39215 | 9.00221 | 32222 ft | 531 kts | 47° |
| 2026-05-06 10:21 | 44.41766 | 9.03950 | 32710 ft | 530 kts | 47° |
| 2026-05-06 10:21 | 44.44312 | 9.07674 | 33143 ft | 528 kts | 47° |
| 2026-05-06 10:21 | 44.46852 | 9.11383 | 33586 ft | 527 kts | 47° |
| 2026-05-06 10:21 | 44.49380 | 9.15072 | 34104 ft | 523 kts | 47° |
| 2026-05-06 10:22 | 44.51889 | 9.18738 | 34547 ft | 521 kts | 47° |
| 2026-05-06 10:22 | 44.54390 | 9.22399 | 34965 ft | 519 kts | 47° |
| 2026-05-06 10:22 | 44.56874 | 9.26051 | 35364 ft | 517 kts | 47° |
| 2026-05-06 10:22 | 44.59346 | 9.29699 | 35759 ft | 515 kts | 47° |
| 2026-05-06 10:23 | 44.61810 | 9.33340 | 36171 ft | 514 kts | 47° |
| 2026-05-06 10:23 | 44.64237 | 9.36923 | 36541 ft | 512 kts | 47° |
| 2026-05-06 10:23 | 44.66692 | 9.40545 | 36819 ft | 512 kts | 47° |
| 2026-05-06 10:23 | 44.69137 | 9.44159 | 36876 ft | 508 kts | 47° |
| 2026-05-06 10:24 | 44.73983 | 9.51338 | 36844 ft | 506 kts | 47° |
| 2026-05-06 10:24 | 44.78834 | 9.58540 | 36865 ft | 507 kts | 47° |
| 2026-05-06 10:25 | 44.83679 | 9.65757 | 36873 ft | 507 kts | 47° |
| 2026-05-06 10:25 | 44.88520 | 9.72976 | 36853 ft | 506 kts | 47° |
| 2026-05-06 10:26 | 44.93349 | 9.80214 | 36876 ft | 507 kts | 47° |
| 2026-05-06 10:26 | 44.98184 | 9.87479 | 36889 ft | 508 kts | 47° |
| 2026-05-06 10:27 | 45.03014 | 9.94750 | 36893 ft | 507 kts | 47° |
| 2026-05-06 10:27 | 45.07837 | 10.02023 | 36876 ft | 507 kts | 46° |
| 2026-05-06 10:28 | 45.12653 | 10.09301 | 36895 ft | 507 kts | 46° |
| 2026-05-06 10:28 | 45.17469 | 10.16605 | 36910 ft | 507 kts | 47° |
| 2026-05-06 10:29 | 45.22277 | 10.23926 | 36915 ft | 507 kts | 47° |
| 2026-05-06 10:29 | 45.27052 | 10.31210 | 36916 ft | 507 kts | 47° |
| 2026-05-06 10:30 | 45.31884 | 10.38611 | 36913 ft | 508 kts | 47° |
| 2026-05-06 10:30 | 45.36638 | 10.45901 | 36886 ft | 506 kts | 47° |
| 2026-05-06 10:31 | 45.41423 | 10.53249 | 36851 ft | 506 kts | 47° |
| 2026-05-06 10:31 | 45.46204 | 10.60613 | 36900 ft | 507 kts | 47° |
| 2026-05-06 10:32 | 45.50983 | 10.67995 | 36944 ft | 507 kts | 47° |
| 2026-05-06 10:32 | 45.55753 | 10.75401 | 36943 ft | 507 kts | 47° |
| 2026-05-06 10:33 | 45.60513 | 10.82805 | 36940 ft | 506 kts | 47° |
| 2026-05-06 10:33 | 45.65278 | 10.90223 | 36948 ft | 506 kts | 47° |
| 2026-05-06 10:34 | 45.70039 | 10.97659 | 36945 ft | 506 kts | 47° |
| 2026-05-06 10:34 | 45.74784 | 11.05098 | 36925 ft | 505 kts | 48° |
| 2026-05-06 10:35 | 45.79511 | 11.12530 | 36940 ft | 504 kts | 48° |
| 2026-05-06 10:35 | 45.84233 | 11.19956 | 36945 ft | 504 kts | 47° |
| 2026-05-06 10:36 | 45.88949 | 11.27402 | 36949 ft | 504 kts | 48° |
| 2026-05-06 10:36 | 45.93646 | 11.34850 | 36941 ft | 504 kts | 48° |
| 2026-05-06 10:37 | 45.98345 | 11.42331 | 36943 ft | 504 kts | 48° |
| 2026-05-06 10:37 | 46.03037 | 11.49811 | 36959 ft | 503 kts | 47° |
| 2026-05-06 10:38 | 46.07728 | 11.57289 | 36956 ft | 503 kts | 47° |
| 2026-05-06 10:38 | 46.12409 | 11.64772 | 36955 ft | 502 kts | 48° |
| 2026-05-06 10:39 | 46.17046 | 11.72201 | 36955 ft | 502 kts | 48° |
| 2026-05-06 10:39 | 46.20945 | 11.78474 | 36946 ft | 501 kts | 48° |
| 2026-05-06 10:40 | 46.26341 | 11.87204 | 36945 ft | 501 kts | 48° |
| 2026-05-06 10:40 | 46.30975 | 11.94715 | 36940 ft | 501 kts | 48° |
| 2026-05-06 10:41 | 46.34858 | 12.01017 | 36942 ft | 501 kts | 48° |
| 2026-05-06 10:41 | 46.39495 | 12.08555 | 36943 ft | 500 kts | 47° |
| 2026-05-06 10:42 | 46.44085 | 12.16041 | 36922 ft | 500 kts | 48° |
| 2026-05-06 10:42 | 46.48692 | 12.23578 | 36963 ft | 499 kts | 48° |
| 2026-05-06 10:43 | 46.53283 | 12.31119 | 36980 ft | 498 kts | 47° |
| 2026-05-06 10:44 | 46.60144 | 12.42414 | 36981 ft | 496 kts | 48° |
| 2026-05-06 10:44 | 46.64707 | 12.49948 | 36970 ft | 496 kts | 48° |
| 2026-05-06 10:45 | 46.69250 | 12.57479 | 36961 ft | 495 kts | 48° |
| 2026-05-06 10:45 | 46.73689 | 12.65148 | 36955 ft | 495 kts | 51° |
| 2026-05-06 10:46 | 46.77953 | 12.73036 | 36905 ft | 494 kts | 52° |
| 2026-05-06 10:46 | 46.82169 | 12.80973 | 36926 ft | 495 kts | 51° |
| 2026-05-06 10:47 | 46.86424 | 12.88889 | 36923 ft | 495 kts | 51° |
| 2026-05-06 10:47 | 46.90697 | 12.96783 | 36912 ft | 495 kts | 51° |
| 2026-05-06 10:48 | 46.94952 | 13.04689 | 36916 ft | 494 kts | 51° |
| 2026-05-06 10:48 | 46.99201 | 13.12614 | 36903 ft | 494 kts | 51° |
| 2026-05-06 10:49 | 47.03406 | 13.20486 | 36902 ft | 494 kts | 51° |
| 2026-05-06 10:49 | 47.07632 | 13.28426 | 36877 ft | 493 kts | 51° |
| 2026-05-06 10:50 | 47.11851 | 13.36363 | 36879 ft | 493 kts | 51° |
| 2026-05-06 10:50 | 47.16061 | 13.44295 | 36884 ft | 493 kts | 51° |
| 2026-05-06 10:51 | 47.20269 | 13.52261 | 36888 ft | 492 kts | 51° |
| 2026-05-06 10:51 | 47.24470 | 13.60225 | 36873 ft | 494 kts | 52° |
| 2026-05-06 10:52 | 47.28673 | 13.68226 | 36862 ft | 494 kts | 52° |
| 2026-05-06 10:52 | 47.32881 | 13.76256 | 36872 ft | 496 kts | 52° |
| 2026-05-06 10:53 | 47.37087 | 13.84310 | 36828 ft | 494 kts | 52° |
| 2026-05-06 10:53 | 47.41274 | 13.92345 | 36840 ft | 494 kts | 52° |
| 2026-05-06 10:54 | 47.45458 | 14.00395 | 36848 ft | 493 kts | 52° |
| 2026-05-06 10:54 | 47.49629 | 14.08457 | 36853 ft | 494 kts | 52° |
| 2026-05-06 10:55 | 47.53795 | 14.16549 | 36853 ft | 494 kts | 53° |
| 2026-05-06 10:55 | 47.57961 | 14.24637 | 36871 ft | 494 kts | 53° |
| 2026-05-06 10:56 | 47.62088 | 14.32660 | 36855 ft | 492 kts | 53° |
| 2026-05-06 10:56 | 47.66221 | 14.40738 | 36822 ft | 491 kts | 53° |
| 2026-05-06 10:57 | 47.70333 | 14.48801 | 36840 ft | 489 kts | 53° |
| 2026-05-06 10:57 | 47.74435 | 14.56862 | 36853 ft | 489 kts | 53° |
| 2026-05-06 10:58 | 47.78515 | 14.64908 | 36848 ft | 486 kts | 53° |
| 2026-05-06 10:58 | 47.82582 | 14.72943 | 36844 ft | 485 kts | 53° |
| 2026-05-06 10:59 | 47.86629 | 14.80971 | 36841 ft | 485 kts | 53° |
| 2026-05-06 10:59 | 47.90664 | 14.89004 | 36847 ft | 484 kts | 53° |
| 2026-05-06 11:00 | 47.94697 | 14.97042 | 36842 ft | 484 kts | 53° |
| 2026-05-06 11:00 | 47.98720 | 15.05091 | 36829 ft | 483 kts | 54° |
| 2026-05-06 11:01 | 48.02734 | 15.13144 | 36848 ft | 483 kts | 54° |
| 2026-05-06 11:01 | 48.06738 | 15.21199 | 36859 ft | 482 kts | 54° |
| 2026-05-06 11:02 | 48.10736 | 15.29253 | 36850 ft | 482 kts | 54° |
| 2026-05-06 11:02 | 48.14722 | 15.37326 | 36845 ft | 482 kts | 54° |
| 2026-05-06 11:03 | 48.18668 | 15.45362 | 36843 ft | 482 kts | 54° |
| 2026-05-06 11:03 | 48.22642 | 15.53463 | 36843 ft | 482 kts | 54° |
| 2026-05-06 11:04 | 48.26621 | 15.61568 | 36825 ft | 482 kts | 54° |
| 2026-05-06 11:04 | 48.30589 | 15.69687 | 36829 ft | 483 kts | 54° |
| 2026-05-06 11:05 | 48.34555 | 15.77836 | 36834 ft | 483 kts | 54° |
| 2026-05-06 11:05 | 48.38514 | 15.86007 | 36842 ft | 483 kts | 54° |
| 2026-05-06 11:06 | 48.42470 | 15.94191 | 36863 ft | 484 kts | 54° |
| 2026-05-06 11:06 | 48.46424 | 16.02391 | 36854 ft | 484 kts | 54° |
| 2026-05-06 11:07 | 48.50378 | 16.10605 | 36860 ft | 484 kts | 54° |
| 2026-05-06 11:07 | 48.54323 | 16.18837 | 36860 ft | 484 kts | 55° |
| 2026-05-06 11:08 | 48.58262 | 16.27089 | 36847 ft | 484 kts | 54° |
| 2026-05-06 11:08 | 48.62193 | 16.35343 | 36872 ft | 484 kts | 55° |
| 2026-05-06 11:09 | 48.66123 | 16.43601 | 36869 ft | 484 kts | 55° |
| 2026-05-06 11:09 | 48.70038 | 16.51876 | 36872 ft | 484 kts | 55° |
| 2026-05-06 11:10 | 48.73945 | 16.60172 | 36867 ft | 484 kts | 55° |
| 2026-05-06 11:10 | 48.77852 | 16.68471 | 36882 ft | 484 kts | 55° |
| 2026-05-06 11:11 | 48.81732 | 16.76728 | 36873 ft | 484 kts | 55° |
| 2026-05-06 11:11 | 48.85628 | 16.85057 | 36870 ft | 484 kts | 55° |
| 2026-05-06 11:12 | 48.89523 | 16.93397 | 36872 ft | 484 kts | 55° |
| 2026-05-06 11:12 | 48.93398 | 17.01748 | 36901 ft | 483 kts | 55° |
| 2026-05-06 11:13 | 48.97258 | 17.10091 | 36887 ft | 482 kts | 55° |
| 2026-05-06 11:13 | 49.01119 | 17.18441 | 36887 ft | 482 kts | 55° |
| 2026-05-06 11:14 | 49.04974 | 17.26801 | 36884 ft | 482 kts | 55° |
| 2026-05-06 11:14 | 49.08819 | 17.35169 | 36880 ft | 482 kts | 55° |
| 2026-05-06 11:15 | 49.12651 | 17.43556 | 36884 ft | 482 kts | 55° |
| 2026-05-06 11:15 | 49.16481 | 17.51966 | 36885 ft | 482 kts | 56° |
| 2026-05-06 11:16 | 49.20311 | 17.60383 | 36890 ft | 482 kts | 55° |
| 2026-05-06 11:16 | 49.24141 | 17.68810 | 36900 ft | 483 kts | 56° |
| 2026-05-06 11:17 | 49.27956 | 17.77268 | 36916 ft | 483 kts | 56° |
| 2026-05-06 11:17 | 49.31768 | 17.85740 | 36904 ft | 483 kts | 56° |
| 2026-05-06 11:18 | 49.35588 | 17.94232 | 36898 ft | 484 kts | 56° |
| 2026-05-06 11:18 | 49.39404 | 18.02745 | 36888 ft | 484 kts | 56° |
| 2026-05-06 11:19 | 49.43205 | 18.11279 | 36881 ft | 484 kts | 56° |
| 2026-05-06 11:19 | 49.47002 | 18.19830 | 36869 ft | 484 kts | 56° |
| 2026-05-06 11:20 | 49.50772 | 18.28321 | 36868 ft | 484 kts | 56° |
| 2026-05-06 11:20 | 49.54561 | 18.36881 | 36869 ft | 484 kts | 56° |
| 2026-05-06 11:21 | 49.58338 | 18.45465 | 36873 ft | 484 kts | 56° |
| 2026-05-06 11:21 | 49.62104 | 18.54059 | 36879 ft | 484 kts | 56° |
| 2026-05-06 11:22 | 49.65873 | 18.62669 | 36875 ft | 484 kts | 56° |
| 2026-05-06 11:22 | 49.69737 | 18.71174 | 36883 ft | 484 kts | 49° |
| 2026-05-06 11:23 | 49.74398 | 18.78648 | 36883 ft | 483 kts | 44° |
| 2026-05-06 11:23 | 49.79110 | 18.86062 | 36879 ft | 483 kts | 45° |
| 2026-05-06 11:24 | 49.83801 | 18.93504 | 36884 ft | 482 kts | 45° |
| 2026-05-06 11:24 | 49.88485 | 19.00940 | 36883 ft | 481 kts | 44° |
| 2026-05-06 11:25 | 49.93156 | 19.08354 | 36886 ft | 480 kts | 44° |
| 2026-05-06 11:25 | 49.97812 | 19.15789 | 36886 ft | 480 kts | 45° |
| 2026-05-06 11:26 | 50.02456 | 19.23230 | 36873 ft | 479 kts | 45° |
| 2026-05-06 11:26 | 50.07065 | 19.30612 | 36869 ft | 479 kts | 45° |
| 2026-05-06 11:27 | 50.11692 | 19.38068 | 36867 ft | 479 kts | 45° |
| 2026-05-06 11:27 | 50.16310 | 19.45544 | 36878 ft | 479 kts | 45° |
| 2026-05-06 11:28 | 50.20930 | 19.53022 | 36865 ft | 479 kts | 45° |
| 2026-05-06 11:28 | 50.25553 | 19.60526 | 36861 ft | 479 kts | 45° |
| 2026-05-06 11:29 | 50.30163 | 19.68048 | 36859 ft | 479 kts | 45° |
| 2026-05-06 11:29 | 50.34766 | 19.75589 | 36840 ft | 479 kts | 45° |
| 2026-05-06 11:30 | 50.39364 | 19.83136 | 36847 ft | 479 kts | 45° |
| 2026-05-06 11:30 | 50.43973 | 19.90701 | 36846 ft | 480 kts | 45° |
| 2026-05-06 11:31 | 50.48578 | 19.98284 | 36847 ft | 481 kts | 45° |
| 2026-05-06 11:31 | 50.52409 | 20.04611 | 36850 ft | 481 kts | 45° |
| 2026-05-06 11:32 | 50.57012 | 20.12250 | 36854 ft | 481 kts | 45° |
| 2026-05-06 11:32 | 50.61601 | 20.19899 | 36855 ft | 481 kts | 45° |
| 2026-05-06 11:33 | 50.66787 | 20.26389 | 36849 ft | 475 kts | 25° |
| 2026-05-06 11:33 | 50.72791 | 20.30642 | 36848 ft | 473 kts | 20° |
| 2026-05-06 11:34 | 50.78834 | 20.34784 | 36852 ft | 473 kts | 21° |
| 2026-05-06 11:34 | 50.84871 | 20.38959 | 36848 ft | 474 kts | 21° |
| 2026-05-06 11:35 | 50.90914 | 20.43147 | 36845 ft | 474 kts | 21° |
| 2026-05-06 11:35 | 50.96961 | 20.47344 | 36850 ft | 475 kts | 21° |
| 2026-05-06 11:36 | 51.03013 | 20.51553 | 36843 ft | 475 kts | 21° |
| 2026-05-06 11:36 | 51.09061 | 20.55765 | 36840 ft | 475 kts | 21° |
| 2026-05-06 11:37 | 51.15107 | 20.60000 | 36834 ft | 475 kts | 21° |
| 2026-05-06 11:37 | 51.21110 | 20.64218 | 36840 ft | 475 kts | 21° |
| 2026-05-06 11:38 | 51.27184 | 20.68511 | 36830 ft | 474 kts | 21° |
| 2026-05-06 11:38 | 51.33373 | 20.72069 | 36831 ft | 472 kts | 16° |
| 2026-05-06 11:39 | 51.39567 | 20.75354 | 36836 ft | 472 kts | 15° |
| 2026-05-06 11:39 | 51.45809 | 20.78666 | 36828 ft | 472 kts | 16° |
| 2026-05-06 11:40 | 51.52040 | 20.82015 | 36824 ft | 473 kts | 16° |
| 2026-05-06 11:40 | 51.58273 | 20.85388 | 36816 ft | 472 kts | 16° |
| 2026-05-06 11:41 | 51.64501 | 20.88763 | 36814 ft | 472 kts | 16° |
| 2026-05-06 11:41 | 51.70737 | 20.92135 | 36807 ft | 473 kts | 16° |
| 2026-05-06 11:42 | 51.77050 | 20.94615 | 36809 ft | 463 kts | 354° |
| 2026-05-06 11:42 | 51.80166 | 20.93657 | 36807 ft | 449 kts | 333° |
| 2026-05-06 11:42 | 51.82962 | 20.91477 | 36798 ft | 446 kts | 328° |
| 2026-05-06 11:43 | 51.88480 | 20.86862 | 36802 ft | 448 kts | 328° |
| 2026-05-06 11:43 | 51.94026 | 20.82211 | 36778 ft | 450 kts | 328° |
| 2026-05-06 11:44 | 52.00146 | 20.80157 | 36763 ft | 466 kts | 7° |
| 2026-05-06 11:44 | 52.03223 | 20.81793 | 36759 ft | 470 kts | 28° |
| 2026-05-06 11:44 | 52.05783 | 20.85063 | 36754 ft | 470 kts | 50° |
| 2026-05-06 11:44 | 52.07490 | 20.89542 | 36751 ft | 466 kts | 72° |
| 2026-05-06 11:45 | 52.08128 | 20.94630 | 36748 ft | 458 kts | 94° |
| 2026-05-06 11:45 | 52.07631 | 20.99658 | 36769 ft | 448 kts | 116° |
| 2026-05-06 11:45 | 52.06091 | 21.03965 | 36784 ft | 439 kts | 137° |
| 2026-05-06 11:45 | 52.03737 | 21.06993 | 36785 ft | 428 kts | 159° |
| 2026-05-06 11:46 | 52.00940 | 21.08415 | 36790 ft | 421 kts | 174° |
| 2026-05-06 11:46 | 51.98048 | 21.09268 | 36780 ft | 423 kts | 173° |
| 2026-05-06 11:46 | 51.92278 | 21.10862 | 36779 ft | 421 kts | 180° |
| 2026-05-06 11:47 | 51.89418 | 21.10372 | 36797 ft | 413 kts | 197° |
| 2026-05-06 11:47 | 51.86602 | 21.09381 | 36774 ft | 416 kts | 186° |
| 2026-05-06 11:47 | 51.83716 | 21.09901 | 36781 ft | 424 kts | 165° |
| 2026-05-06 11:47 | 51.81105 | 21.12192 | 36765 ft | 435 kts | 143° |
| 2026-05-06 11:48 | 51.79154 | 21.15964 | 36758 ft | 446 kts | 121° |
| 2026-05-06 11:48 | 51.78152 | 21.20732 | 36758 ft | 455 kts | 99° |
| 2026-05-06 11:48 | 51.78251 | 21.25858 | 36754 ft | 462 kts | 81° |
| 2026-05-06 11:48 | 51.78930 | 21.30940 | 36767 ft | 464 kts | 78° |
| 2026-05-06 11:49 | 51.80968 | 21.40900 | 36745 ft | 471 kts | 67° |
| 2026-05-06 11:49 | 51.84249 | 21.50049 | 36765 ft | 473 kts | 50° |
| 2026-05-06 11:50 | 51.88500 | 21.58193 | 36771 ft | 474 kts | 50° |
| 2026-05-06 11:50 | 51.92761 | 21.66359 | 36776 ft | 475 kts | 50° |
| 2026-05-06 11:51 | 51.97024 | 21.74538 | 36794 ft | 475 kts | 50° |
| 2026-05-06 11:51 | 52.01266 | 21.82682 | 36795 ft | 476 kts | 50° |
| 2026-05-06 11:52 | 52.05537 | 21.90890 | 36798 ft | 476 kts | 50° |
| 2026-05-06 11:52 | 52.09811 | 21.99110 | 36798 ft | 476 kts | 50° |
| 2026-05-06 11:53 | 52.14088 | 22.07346 | 36800 ft | 476 kts | 50° |
| 2026-05-06 11:53 | 52.18364 | 22.15586 | 36804 ft | 477 kts | 50° |
| 2026-05-06 11:54 | 52.22644 | 22.23841 | 36801 ft | 477 kts | 50° |
| 2026-05-06 11:54 | 52.26925 | 22.32105 | 36789 ft | 477 kts | 50° |
| 2026-05-06 11:55 | 52.30624 | 22.41015 | 36789 ft | 475 kts | 58° |
| 2026-05-06 11:55 | 52.32771 | 22.45072 | 36784 ft | 473 kts | 37° |
| 2026-05-06 11:55 | 52.35613 | 22.47681 | 36785 ft | 468 kts | 15° |
| 2026-05-06 11:56 | 52.38779 | 22.48518 | 36775 ft | 458 kts | 354° |
| 2026-05-06 11:56 | 52.41859 | 22.47572 | 36764 ft | 446 kts | 338° |
| 2026-05-06 11:56 | 52.44814 | 22.46192 | 36241 ft | 440 kts | 347° |
| 2026-05-06 11:56 | 52.47902 | 22.46143 | 34893 ft | 451 kts | 7° |
| 2026-05-06 11:57 | 52.50993 | 22.47002 | 33687 ft | 449 kts | 0° |
| 2026-05-06 11:57 | 52.54053 | 22.46705 | 32526 ft | 434 kts | 341° |
| 2026-05-06 11:57 | 52.56823 | 22.45040 | 31450 ft | 419 kts | 329° |
| 2026-05-06 11:57 | 52.59406 | 22.42907 | 30404 ft | 412 kts | 328° |
| 2026-05-06 11:58 | 52.61935 | 22.40758 | 29377 ft | 406 kts | 327° |
| 2026-05-06 11:58 | 52.64273 | 22.38309 | 28284 ft | 390 kts | 312° |
| 2026-05-06 11:58 | 52.65930 | 22.34944 | 27307 ft | 371 kts | 292° |
| 2026-05-06 11:58 | 52.66735 | 22.31025 | 26339 ft | 355 kts | 273° |
| 2026-05-06 11:59 | 52.66627 | 22.27057 | 25388 ft | 343 kts | 253° |
| 2026-05-06 11:59 | 52.65650 | 22.23545 | 24437 ft | 337 kts | 233° |
| 2026-05-06 11:59 | 52.64137 | 22.20625 | 23438 ft | 335 kts | 228° |
| 2026-05-06 11:59 | 52.62545 | 22.17829 | 22314 ft | 333 kts | 227° |
| 2026-05-06 12:00 | 52.60960 | 22.15077 | 21299 ft | 329 kts | 227° |
| 2026-05-06 12:00 | 52.59391 | 22.12383 | 20342 ft | 323 kts | 225° |
| 2026-05-06 12:00 | 52.57741 | 22.09909 | 19411 ft | 319 kts | 223° |
| 2026-05-06 12:00 | 52.56091 | 22.07518 | 18550 ft | 314 kts | 222° |
| 2026-05-06 12:01 | 52.54485 | 22.05192 | 18146 ft | 316 kts | 223° |
| 2026-05-06 12:01 | 52.52778 | 22.02716 | 17758 ft | 334 kts | 222° |
| 2026-05-06 12:01 | 52.51029 | 22.00174 | 17350 ft | 336 kts | 222° |
| 2026-05-06 12:01 | 52.49267 | 21.97606 | 16949 ft | 334 kts | 222° |
| 2026-05-06 12:02 | 52.47540 | 21.95081 | 16559 ft | 331 kts | 222° |
| 2026-05-06 12:02 | 52.45824 | 21.92568 | 16165 ft | 329 kts | 222° |
| 2026-05-06 12:02 | 52.44146 | 21.90105 | 15788 ft | 327 kts | 222° |
| 2026-05-06 12:02 | 52.42464 | 21.87601 | 15413 ft | 326 kts | 225° |
| 2026-05-06 12:03 | 52.40909 | 21.84923 | 15057 ft | 323 kts | 227° |
| 2026-05-06 12:03 | 52.39401 | 21.82223 | 14699 ft | 320 kts | 227° |
| 2026-05-06 12:03 | 52.37907 | 21.79539 | 14341 ft | 318 kts | 227° |
| 2026-05-06 12:03 | 52.36422 | 21.76866 | 13986 ft | 316 kts | 227° |
| 2026-05-06 12:04 | 52.34947 | 21.74204 | 13627 ft | 314 kts | 227° |
| 2026-05-06 12:04 | 52.33488 | 21.71565 | 13235 ft | 312 kts | 227° |
| 2026-05-06 12:04 | 52.32037 | 21.68944 | 12840 ft | 310 kts | 227° |
| 2026-05-06 12:04 | 52.30588 | 21.66342 | 12450 ft | 309 kts | 227° |
| 2026-05-06 12:05 | 52.29142 | 21.63761 | 12065 ft | 307 kts | 227° |
| 2026-05-06 12:05 | 52.27696 | 21.61204 | 11683 ft | 305 kts | 227° |
| 2026-05-06 12:05 | 52.26255 | 21.58667 | 11301 ft | 304 kts | 227° |
| 2026-05-06 12:05 | 52.24820 | 21.56151 | 10923 ft | 302 kts | 227° |
| 2026-05-06 12:06 | 52.23386 | 21.53639 | 10558 ft | 302 kts | 227° |
| 2026-05-06 12:06 | 52.21956 | 21.51145 | 10198 ft | 300 kts | 227° |
| 2026-05-06 12:06 | 52.20531 | 21.48677 | 9764 ft | 298 kts | 227° |
| 2026-05-06 12:06 | 52.19114 | 21.46233 | 9256 ft | 296 kts | 227° |
| 2026-05-06 12:07 | 52.17705 | 21.43796 | 8759 ft | 294 kts | 228° |
| 2026-05-06 12:07 | 52.16554 | 21.41070 | 8277 ft | 292 kts | 241° |
| 2026-05-06 12:07 | 52.15536 | 21.38214 | 7746 ft | 291 kts | 237° |
| 2026-05-06 12:07 | 52.14425 | 21.35460 | 7275 ft | 290 kts | 236° |
| 2026-05-06 12:08 | 52.13311 | 21.32736 | 6819 ft | 286 kts | 236° |
| 2026-05-06 12:08 | 52.12214 | 21.30054 | 6051 ft | 284 kts | 236° |
| 2026-05-06 12:08 | 52.11124 | 21.27381 | 5306 ft | 282 kts | 236° |
| 2026-05-06 12:08 | 52.10056 | 21.24723 | 4577 ft | 280 kts | 236° |
| 2026-05-06 12:09 | 52.09032 | 21.22149 | 4245 ft | 258 kts | 236° |
| 2026-05-06 12:09 | 52.08097 | 21.19757 | 3679 ft | 247 kts | 238° |
| 2026-05-06 12:09 | 52.07283 | 21.17326 | 3144 ft | 241 kts | 241° |
| 2026-05-06 12:09 | 52.06502 | 21.14880 | 3008 ft | 248 kts | 242° |
| 2026-05-06 12:10 | 52.05958 | 21.12210 | 2678 ft | 249 kts | 260° |
| 2026-05-06 12:10 | 52.06000 | 21.09404 | 2533 ft | 252 kts | 278° |
| 2026-05-06 12:10 | 52.06605 | 21.06782 | 2331 ft | 249 kts | 298° |
| 2026-05-06 12:10 | 52.07688 | 21.04682 | 2104 ft | 230 kts | 315° |
| 2026-05-06 12:11 | 52.08938 | 21.03375 | 1838 ft | 203 kts | 328° |
| 2026-05-06 12:11 | 52.10102 | 21.02368 | 1601 ft | 176 kts | 327° |
| 2026-05-06 12:11 | 52.11120 | 21.01482 | 1363 ft | 158 kts | 325° |
| 2026-05-06 12:11 | 52.12071 | 21.00651 | 1154 ft | 151 kts | 324° |
| 2026-05-06 12:12 | 52.12976 | 20.99863 | 954 ft | 149 kts | 326° |
| 2026-05-06 12:12 | 52.13887 | 20.99062 | 734 ft | 150 kts | 323° |
| 2026-05-06 12:12 | 52.14806 | 20.98275 | 530 ft | 149 kts | 325° |
| 2026-05-06 12:12 | 52.15708 | 20.97470 | 371 ft | 147 kts | 327° |
| 2026-05-06 12:13 | 52.16521 | 20.96758 | 337 ft | 112 kts | 332° |
| 2026-05-06 12:13 | 52.17039 | 20.96307 | 333 ft | 44 kts | 333° |
| 2026-05-06 12:13 | 52.17227 | 20.96246 | 335 ft | 27 kts | 354° |
| 2026-05-06 12:13 | 52.17364 | 20.96257 | 338 ft | 8 kts | 19° |
| 2026-05-06 12:14 | 52.17409 | 20.96328 | 337 ft | 11 kts | 60° |
| 2026-05-06 12:14 | 52.17449 | 20.96446 | 338 ft | 13 kts | 62° |
| 2026-05-06 12:14 | 52.17446 | 20.96583 | 334 ft | 14 kts | 144° |
| 2026-05-06 12:14 | 52.17383 | 20.96592 | 337 ft | 8 kts | 231° |
| 2026-05-06 12:15 | 52.17340 | 20.96545 | 334 ft | 3 kts | 208° |
| 2026-05-06 12:15 | 52.17340 | 20.96544 | 334 ft | 0 kts | 208° |